createdAt,value
2018-01-30T00:01:03.830Z,100897.36
2018-01-30T00:02:09.567Z,100905.61
2018-01-30T00:03:15.328Z,100907.23
2018-01-30T00:04:20.477Z,100909.41
2018-01-30T00:05:26.212Z,100907.62
2018-01-30T00:06:31.922Z,100924.61
2018-01-30T00:07:37.336Z,100918.97
2018-01-30T00:08:43.879Z,100922.05
2018-01-30T00:09:50.385Z,100925.50
2018-01-30T00:10:56.432Z,100913.25
2018-01-30T00:12:02.168Z,100927.73
2018-01-30T00:13:07.888Z,100932.47
2018-01-30T00:14:13.651Z,100932.05
2018-01-30T00:15:19.363Z,100935.48
2018-01-30T00:16:25.008Z,100927.35
2018-01-30T00:17:31.603Z,100940.75
2018-01-30T00:18:37.328Z,100935.08
2018-01-30T00:19:43.284Z,100942.51
2018-01-30T00:20:48.995Z,100939.56
2018-01-30T00:21:54.838Z,100944.27
2018-01-30T00:23:01.621Z,100943.50
2018-01-30T00:24:07.355Z,100950.85
2018-01-30T00:25:13.099Z,100945.66
2018-01-30T00:26:18.807Z,100954.27
2018-01-30T00:27:25.312Z,100949.94
2018-01-30T00:28:31.044Z,100939.64
2018-01-30T00:29:36.779Z,100952.85
2018-01-30T00:30:42.541Z,100951.77
2018-01-30T00:31:48.276Z,100955.14
2018-01-30T00:32:54.002Z,100959.58
2018-01-30T00:33:59.721Z,100961.46
2018-01-30T00:35:06.222Z,100966.37
2018-01-30T00:36:11.992Z,100974.38
2018-01-30T00:37:17.836Z,100976.92
2018-01-30T00:38:23.549Z,100976.26
2018-01-30T00:39:29.296Z,100975.53
2018-01-30T00:40:35.040Z,100984.53
2018-01-30T00:41:40.840Z,100996.06
2018-01-30T00:42:47.336Z,100991.75
2018-01-30T00:43:53.079Z,100989.72
2018-01-30T00:44:58.796Z,100995.86
2018-01-30T00:46:04.530Z,100994.62
2018-01-30T00:47:10.277Z,100991.72
2018-01-30T00:48:16.006Z,101001.34
2018-01-30T00:49:22.507Z,101011.44
2018-01-30T00:50:28.234Z,101022.48
2018-01-30T00:51:33.951Z,101022.61
2018-01-30T00:52:39.800Z,101020.43
2018-01-30T00:53:45.586Z,101027.08
2018-01-30T00:54:51.296Z,101032.73
2018-01-30T00:55:57.030Z,101029.30
2018-01-30T00:57:02.763Z,101038.06
2018-01-30T00:58:08.506Z,101045.09
2018-01-30T00:59:14.225Z,101044.33
2018-01-30T01:00:20.699Z,101042.17
2018-01-30T01:01:26.403Z,101034.02
2018-01-30T01:02:32.172Z,101035.78
2018-01-30T01:03:37.772Z,101033.60
2018-01-30T01:04:43.171Z,101038.02
2018-01-30T01:05:48.912Z,101038.09
2018-01-30T01:06:54.656Z,101038.72
2018-01-30T01:08:01.152Z,101042.66
2018-01-30T01:09:06.246Z,101050.55
2018-01-30T01:10:11.961Z,101046.30
2018-01-30T01:11:17.681Z,101052.42
2018-01-30T01:12:23.841Z,101049.42
2018-01-30T01:13:30.346Z,101049.89
2018-01-30T01:14:36.093Z,101056.89
2018-01-30T01:15:40.933Z,101064.28
2018-01-30T01:16:46.667Z,101070.81
2018-01-30T01:17:52.408Z,101067.37
2018-01-30T01:18:58.152Z,101068.63
2018-01-30T01:20:04.421Z,101078.52
2018-01-30T01:21:10.179Z,101074.11
2018-01-30T01:22:15.776Z,101073.67
2018-01-30T01:23:21.488Z,101084.10
2018-01-30T01:24:27.223Z,101084.53
2018-01-30T01:25:32.995Z,101072.80
2018-01-30T01:26:38.777Z,101084.05
2018-01-30T01:27:45.259Z,101085.28
2018-01-30T01:28:50.974Z,101088.68
2018-01-30T01:29:57.456Z,101092.50
2018-01-30T01:31:03.215Z,101094.23
2018-01-30T01:32:08.998Z,101096.33
2018-01-30T01:33:14.909Z,101097.64
2018-01-30T01:34:20.624Z,101104.14
2018-01-30T01:35:26.404Z,101100.77
2018-01-30T01:36:32.158Z,101100.78
2018-01-30T01:37:37.880Z,101097.72
2018-01-30T01:38:43.676Z,101104.16
2018-01-30T01:39:50.175Z,101099.30
2018-01-30T01:40:55.902Z,101110.09
2018-01-30T01:42:01.646Z,101111.34
2018-01-30T01:43:07.378Z,101106.48
2018-01-30T01:44:13.124Z,101107.74
2018-01-30T01:45:18.871Z,101113.75
2018-01-30T01:46:24.601Z,101111.05
2018-01-30T01:47:30.368Z,101107.97
2018-01-30T01:48:36.100Z,101108.81
2018-01-30T01:49:41.843Z,101104.47
2018-01-30T01:50:47.556Z,101106.78
2018-01-30T01:51:54.037Z,101107.33
2018-01-30T01:52:59.790Z,101102.58
2018-01-30T01:54:05.503Z,101107.39
2018-01-30T01:55:11.648Z,101106.21
2018-01-30T01:56:18.146Z,101102.26
2018-01-30T01:57:23.861Z,101095.73
2018-01-30T01:58:30.364Z,101095.73
2018-01-30T01:59:36.194Z,101108.34
2018-01-30T02:00:41.906Z,101114.55
2018-01-30T02:01:48.381Z,101110.74
2018-01-30T02:02:54.118Z,101108.61
2018-01-30T02:03:59.861Z,101118.25
2018-01-30T02:05:05.270Z,101117.97
2018-01-30T02:06:11.749Z,101118.53
2018-01-30T02:07:17.465Z,101125.92
2018-01-30T02:08:23.944Z,101128.93
2018-01-30T02:09:29.687Z,101134.12
2018-01-30T02:10:35.400Z,101136.62
2018-01-30T02:11:41.917Z,101138.28
2018-01-30T02:12:47.648Z,101134.36
2018-01-30T02:13:53.052Z,101138.69
2018-01-30T02:14:58.792Z,101144.70
2018-01-30T02:16:04.507Z,101145.66
2018-01-30T02:17:10.272Z,101143.92
2018-01-30T02:18:16.763Z,101151.31
2018-01-30T02:19:22.485Z,101144.87
2018-01-30T02:20:28.238Z,101137.54
2018-01-30T02:21:33.948Z,101138.84
2018-01-30T02:22:40.487Z,101139.38
2018-01-30T02:23:46.256Z,101144.28
2018-01-30T02:24:52.738Z,101144.38
2018-01-30T02:25:58.501Z,101141.41
2018-01-30T02:27:04.270Z,101134.91
2018-01-30T02:28:09.985Z,101134.94
2018-01-30T02:29:15.701Z,101141.99
2018-01-30T02:30:21.759Z,101138.98
2018-01-30T02:31:27.520Z,101132.55
2018-01-30T02:32:33.236Z,101133.83
2018-01-30T02:33:38.950Z,101145.23
2018-01-30T02:34:44.687Z,101143.50
2018-01-30T02:35:50.402Z,101144.36
2018-01-30T02:36:56.163Z,101149.59
2018-01-30T02:38:02.646Z,101143.45
2018-01-30T02:39:08.353Z,101153.48
2018-01-30T02:40:14.845Z,101159.95
2018-01-30T02:41:20.555Z,101159.07
2018-01-30T02:42:27.101Z,101159.94
2018-01-30T02:43:32.842Z,101172.55
2018-01-30T02:44:38.579Z,101168.60
2018-01-30T02:45:45.060Z,101170.69
2018-01-30T02:46:51.542Z,101170.65
2018-01-30T02:47:57.288Z,101171.95
2018-01-30T02:49:02.781Z,101166.32
2018-01-30T02:50:08.265Z,101162.45
2018-01-30T02:51:13.431Z,101165.91
2018-01-30T02:52:19.194Z,101168.10
2018-01-30T02:53:25.392Z,101169.45
2018-01-30T02:54:30.242Z,101172.02
2018-01-30T02:55:35.952Z,101166.87
2018-01-30T02:56:41.030Z,101174.70
2018-01-30T02:57:45.870Z,101179.10
2018-01-30T02:58:52.398Z,101173.41
2018-01-30T02:59:58.155Z,101168.27
2018-01-30T03:01:04.646Z,101170.47
2018-01-30T03:02:10.386Z,101166.99
2018-01-30T03:03:16.122Z,101173.05
2018-01-30T03:04:21.894Z,101173.94
2018-01-30T03:05:27.624Z,101173.08
2018-01-30T03:06:33.340Z,101166.57
2018-01-30T03:07:39.175Z,101168.80
2018-01-30T03:08:45.674Z,101160.05
2018-01-30T03:09:51.512Z,101171.31
2018-01-30T03:10:57.246Z,101172.63
2018-01-30T03:12:03.012Z,101172.22
2018-01-30T03:13:08.905Z,101173.16
2018-01-30T03:14:15.417Z,101173.16
2018-01-30T03:15:21.165Z,101171.40
2018-01-30T03:16:26.903Z,101181.30
2018-01-30T03:17:32.634Z,101185.21
2018-01-30T03:18:38.427Z,101188.71
2018-01-30T03:19:44.909Z,101189.22
2018-01-30T03:20:50.646Z,101192.25
2018-01-30T03:21:56.375Z,101188.78
2018-01-30T03:23:02.093Z,101180.13
2018-01-30T03:24:08.900Z,101185.36
2018-01-30T03:25:14.840Z,101186.72
2018-01-30T03:26:20.599Z,101186.70
2018-01-30T03:27:26.335Z,101185.43
2018-01-30T03:28:32.065Z,101184.16
2018-01-30T03:29:37.785Z,101181.55
2018-01-30T03:30:43.532Z,101178.51
2018-01-30T03:31:49.303Z,101189.00
2018-01-30T03:32:55.037Z,101195.96
2018-01-30T03:34:00.759Z,101196.37
2018-01-30T03:35:06.479Z,101197.19
2018-01-30T03:36:12.985Z,101197.62
2018-01-30T03:37:18.828Z,101198.04
2018-01-30T03:38:24.552Z,101194.14
2018-01-30T03:39:30.296Z,101200.70
2018-01-30T03:40:36.042Z,101202.40
2018-01-30T03:41:41.762Z,101202.88
2018-01-30T03:42:47.504Z,101200.30
2018-01-30T03:43:53.250Z,101199.02
2018-01-30T03:44:59.042Z,101202.47
2018-01-30T03:46:04.776Z,101205.93
2018-01-30T03:47:10.522Z,101208.03
2018-01-30T03:48:16.281Z,101213.24
2018-01-30T03:49:22.024Z,101211.50
2018-01-30T03:50:28.563Z,101210.63
2018-01-30T03:51:34.291Z,101216.18
2018-01-30T03:52:40.375Z,101215.73
2018-01-30T03:53:46.144Z,101217.38
2018-01-30T03:54:51.878Z,101217.77
2018-01-30T03:55:58.374Z,101214.22
2018-01-30T03:57:04.111Z,101218.89
2018-01-30T03:58:09.846Z,101217.92
2018-01-30T03:59:15.603Z,101225.20
2018-01-30T04:00:21.335Z,101216.08
2018-01-30T04:01:27.066Z,101221.70
2018-01-30T04:02:32.819Z,101217.35
2018-01-30T04:03:38.631Z,101212.15
2018-01-30T04:04:45.150Z,101213.44
2018-01-30T04:05:50.642Z,101219.55
2018-01-30T04:06:56.451Z,101209.55
2018-01-30T04:08:02.288Z,101217.34
2018-01-30T04:09:08.016Z,101226.36
2018-01-30T04:10:13.758Z,101222.81
2018-01-30T04:11:21.400Z,101223.21
2018-01-30T04:12:27.143Z,101221.39
2018-01-30T04:13:32.957Z,101230.84
2018-01-30T04:14:39.134Z,101227.94
2018-01-30T04:15:44.898Z,101228.45
2018-01-30T04:16:51.178Z,101231.91
2018-01-30T04:17:56.915Z,101228.86
2018-01-30T04:19:02.643Z,101244.94
2018-01-30T04:20:08.183Z,101241.41
2018-01-30T04:21:13.944Z,101236.14
2018-01-30T04:22:19.653Z,101238.23
2018-01-30T04:23:25.395Z,101238.65
2018-01-30T04:24:31.112Z,101237.27
2018-01-30T04:25:36.850Z,101243.34
2018-01-30T04:26:42.599Z,101234.19
2018-01-30T04:27:48.324Z,101232.05
2018-01-30T04:28:54.082Z,101232.98
2018-01-30T04:29:59.849Z,101236.45
2018-01-30T04:31:06.078Z,101243.55
2018-01-30T04:32:11.593Z,101240.94
2018-01-30T04:33:17.325Z,101245.59
2018-01-30T04:34:23.074Z,101245.52
2018-01-30T04:35:28.885Z,101244.20
2018-01-30T04:36:34.612Z,101238.11
2018-01-30T04:37:40.049Z,101243.35
2018-01-30T04:38:45.760Z,101234.28
2018-01-30T04:39:51.495Z,101237.72
2018-01-30T04:40:57.235Z,101237.77
2018-01-30T04:42:02.968Z,101239.53
2018-01-30T04:43:08.731Z,101242.53
2018-01-30T04:44:14.450Z,101243.77
2018-01-30T04:45:20.412Z,101242.86
2018-01-30T04:47:31.004Z,101238.09
2018-01-30T04:48:36.747Z,101238.58
2018-01-30T04:49:42.594Z,101239.55
2018-01-30T04:50:48.323Z,101240.97
2018-01-30T04:51:54.062Z,101244.19
2018-01-30T04:52:59.582Z,101243.86
2018-01-30T04:54:05.345Z,101245.27
2018-01-30T04:55:11.082Z,101249.65
2018-01-30T04:56:16.822Z,101246.71
2018-01-30T04:57:22.546Z,101250.70
2018-01-30T04:58:27.393Z,101253.01
2018-01-30T04:59:33.163Z,101255.32
2018-01-30T05:00:39.649Z,101257.17
2018-01-30T05:01:45.414Z,101252.08
2018-01-30T05:02:51.154Z,101256.97
2018-01-30T05:03:56.905Z,101257.44
2018-01-30T05:05:02.640Z,101258.78
2018-01-30T05:06:08.366Z,101258.78
2018-01-30T05:07:14.106Z,101258.38
2018-01-30T05:08:19.535Z,101262.70
2018-01-30T05:09:25.907Z,101261.83
2018-01-30T05:10:31.648Z,101259.30
2018-01-30T05:11:37.391Z,101253.73
2018-01-30T05:12:43.140Z,101255.50
2018-01-30T05:13:48.888Z,101257.78
2018-01-30T05:14:54.640Z,101249.24
2018-01-30T05:16:00.404Z,101258.43
2018-01-30T05:17:06.893Z,101260.17
2018-01-30T05:18:12.628Z,101260.21
2018-01-30T05:19:18.364Z,101268.98
2018-01-30T05:20:24.125Z,101271.64
2018-01-30T05:21:29.888Z,101279.89
2018-01-30T05:22:35.631Z,101274.69
2018-01-30T05:23:41.360Z,101272.54
2018-01-30T05:24:47.089Z,101283.79
2018-01-30T05:25:52.620Z,101282.03
2018-01-30T05:26:58.382Z,101284.16
2018-01-30T05:28:04.139Z,101278.50
2018-01-30T05:29:09.852Z,101281.52
2018-01-30T05:30:15.702Z,101281.91
2018-01-30T05:31:21.445Z,101280.16
2018-01-30T05:32:27.224Z,101281.45
2018-01-30T05:33:33.747Z,101280.61
2018-01-30T05:34:39.486Z,101278.42
2018-01-30T05:35:45.219Z,101279.20
2018-01-30T05:36:50.985Z,101283.55
2018-01-30T05:37:56.738Z,101284.86
2018-01-30T05:39:03.122Z,101285.25
2018-01-30T05:40:08.871Z,101285.25
2018-01-30T05:41:14.584Z,101287.44
2018-01-30T05:42:21.066Z,101289.10
2018-01-30T05:43:27.209Z,101279.97
2018-01-30T05:44:33.701Z,101285.55
2018-01-30T05:45:39.430Z,101292.97
2018-01-30T05:46:45.144Z,101284.22
2018-01-30T05:47:51.650Z,101281.98
2018-01-30T05:48:57.401Z,101282.41
2018-01-30T05:50:03.165Z,101284.11
2018-01-30T05:51:08.893Z,101285.34
2018-01-30T05:52:15.407Z,101287.08
2018-01-30T05:53:21.231Z,101283.68
2018-01-30T05:54:27.907Z,101292.36
2018-01-30T05:55:33.642Z,101290.58
2018-01-30T05:56:38.755Z,101291.02
2018-01-30T05:57:45.244Z,101284.91
2018-01-30T05:58:50.955Z,101290.15
2018-01-30T05:59:57.487Z,101285.42
2018-01-30T06:01:03.261Z,101291.09
2018-01-30T06:02:09.747Z,101295.14
2018-01-30T06:03:15.503Z,101287.33
2018-01-30T06:04:21.247Z,101290.41
2018-01-30T06:05:27.003Z,101298.27
2018-01-30T06:06:32.724Z,101297.87
2018-01-30T06:07:38.460Z,101291.50
2018-01-30T06:08:44.225Z,101294.64
2018-01-30T06:09:49.973Z,101289.06
2018-01-30T06:10:55.873Z,101286.03
2018-01-30T06:12:01.608Z,101284.77
2018-01-30T06:13:07.432Z,101287.77
2018-01-30T06:14:14.167Z,101289.52
2018-01-30T06:15:19.892Z,101288.36
2018-01-30T06:16:25.646Z,101296.64
2018-01-30T06:17:31.379Z,101296.70
2018-01-30T06:18:37.128Z,101305.00
2018-01-30T06:19:43.052Z,101298.50
2018-01-30T06:20:48.773Z,101295.97
2018-01-30T06:21:55.308Z,101308.94
2018-01-30T06:23:01.040Z,101310.73
2018-01-30T06:24:06.770Z,101305.98
2018-01-30T06:25:12.507Z,101304.72
2018-01-30T06:26:18.238Z,101314.33
2018-01-30T06:27:23.983Z,101312.16
2018-01-30T06:28:29.735Z,101314.84
2018-01-30T06:29:35.469Z,101322.28
2018-01-30T06:30:41.207Z,101319.73
2018-01-30T06:31:46.991Z,101326.66
2018-01-30T06:32:52.046Z,101331.87
2018-01-30T06:33:57.822Z,101322.84
2018-01-30T06:35:03.561Z,101331.56
2018-01-30T06:36:09.300Z,101327.19
2018-01-30T06:37:15.070Z,101325.56
2018-01-30T06:38:22.330Z,101328.18
2018-01-30T06:39:28.056Z,101318.70
2018-01-30T06:40:33.802Z,101321.73
2018-01-30T06:41:39.539Z,101329.11
2018-01-30T06:42:45.265Z,101322.25
2018-01-30T06:43:51.022Z,101312.33
2018-01-30T06:44:59.870Z,101325.33
2018-01-30T06:46:06.688Z,101331.41
2018-01-30T06:47:12.435Z,101329.24
2018-01-30T06:48:18.613Z,101330.97
2018-01-30T06:49:24.710Z,101340.94
2018-01-30T06:50:29.686Z,101339.63
2018-01-30T06:51:37.543Z,101340.50
2018-01-30T06:52:44.200Z,101336.22
2018-01-30T06:53:50.218Z,101337.53
2018-01-30T06:54:56.631Z,101338.40
2018-01-30T06:56:02.476Z,101347.06
2018-01-30T06:57:08.451Z,101348.41
2018-01-30T06:58:16.926Z,101342.73
2018-01-30T06:59:23.461Z,101349.72
2018-01-30T07:00:29.203Z,101344.95
2018-01-30T07:01:35.009Z,101348.00
2018-01-30T07:02:40.946Z,101346.69
2018-01-30T07:03:47.437Z,101348.42
2018-01-30T07:04:53.173Z,101343.65
2018-01-30T07:05:58.931Z,101353.94
2018-01-30T07:07:04.640Z,101354.74
2018-01-30T07:08:11.128Z,101345.70
2018-01-30T07:09:16.869Z,101351.72
2018-01-30T07:10:22.611Z,101355.62
2018-01-30T07:11:28.049Z,101352.56
2018-01-30T07:12:33.766Z,101359.00
2018-01-30T07:13:40.263Z,101360.69
2018-01-30T07:14:45.988Z,101359.80
2018-01-30T07:15:51.721Z,101361.10
2018-01-30T07:16:57.488Z,101361.97
2018-01-30T07:18:03.208Z,101361.55
2018-01-30T07:19:08.927Z,101355.48
2018-01-30T07:20:15.443Z,101362.05
2018-01-30T07:21:21.161Z,101360.31
2018-01-30T07:22:26.971Z,101352.45
2018-01-30T07:23:33.498Z,101358.52
2018-01-30T07:24:39.255Z,101361.97
2018-01-30T07:25:45.006Z,101362.41
2018-01-30T07:26:51.510Z,101371.94
2018-01-30T07:27:57.256Z,101378.45
2018-01-30T07:29:03.003Z,101379.75
2018-01-30T07:30:08.735Z,101378.88
2018-01-30T07:31:14.476Z,101379.31
2018-01-30T07:32:20.218Z,101374.98
2018-01-30T07:33:25.968Z,101376.70
2018-01-30T07:34:31.980Z,101375.80
2018-01-30T07:35:37.812Z,101384.89
2018-01-30T07:36:44.313Z,101390.09
2018-01-30T07:37:50.051Z,101400.91
2018-01-30T07:38:55.807Z,101395.66
2018-01-30T07:40:01.543Z,101395.22
2018-01-30T07:41:07.257Z,101395.21
2018-01-30T07:42:12.989Z,101399.98
2018-01-30T07:43:18.733Z,101400.87
2018-01-30T07:44:24.494Z,101404.33
2018-01-30T07:45:30.212Z,101406.44
2018-01-30T07:46:35.952Z,101409.91
2018-01-30T07:47:41.679Z,101407.68
2018-01-30T07:48:48.165Z,101410.70
2018-01-30T07:49:53.911Z,101421.11
2018-01-30T07:50:59.666Z,101411.51
2018-01-30T07:52:05.381Z,101406.73
2018-01-30T07:53:11.119Z,101410.28
2018-01-30T07:54:16.850Z,101412.92
2018-01-30T07:55:22.686Z,101415.91
2018-01-30T07:56:29.191Z,101412.00
2018-01-30T07:57:34.918Z,101409.40
2018-01-30T07:58:40.654Z,101410.70
2018-01-30T07:59:45.557Z,101402.03
2018-01-30T08:00:51.323Z,101407.66
2018-01-30T08:01:57.043Z,101409.77
2018-01-30T08:03:02.786Z,101411.05
2018-01-30T08:04:08.618Z,101409.32
2018-01-30T08:05:14.339Z,101406.25
2018-01-30T08:06:20.300Z,101409.70
2018-01-30T08:07:26.804Z,101415.78
2018-01-30T08:08:32.547Z,101412.31
2018-01-30T08:09:38.264Z,101419.24
2018-01-30T08:10:44.024Z,101427.81
2018-01-30T08:11:49.774Z,101426.87
2018-01-30T08:12:55.553Z,101426.44
2018-01-30T08:14:02.051Z,101425.52
2018-01-30T08:15:07.438Z,101426.33
2018-01-30T08:16:13.238Z,101421.11
2018-01-30T08:17:18.974Z,101422.34
2018-01-30T08:18:25.293Z,101426.66
2018-01-30T08:19:31.772Z,101430.95
2018-01-30T08:20:37.502Z,101437.83
2018-01-30T08:21:43.215Z,101434.78
2018-01-30T08:22:48.956Z,101434.71
2018-01-30T08:23:54.678Z,101435.12
2018-01-30T08:25:00.428Z,101432.83
2018-01-30T08:26:06.144Z,101439.77
2018-01-30T08:27:11.913Z,101439.70
2018-01-30T08:28:17.665Z,101438.45
2018-01-30T08:29:24.191Z,101437.57
2018-01-30T08:30:29.925Z,101434.05
2018-01-30T08:31:35.644Z,101434.91
2018-01-30T08:32:41.504Z,101437.06
2018-01-30T08:33:47.263Z,101438.24
2018-01-30T08:34:53.045Z,101447.84
2018-01-30T08:35:59.612Z,101447.36
2018-01-30T08:37:06.110Z,101449.94
2018-01-30T08:38:11.824Z,101444.67
2018-01-30T08:39:17.593Z,101442.92
2018-01-30T08:40:23.321Z,101443.28
2018-01-30T08:41:29.049Z,101445.78
2018-01-30T08:42:34.759Z,101443.41
2018-01-30T08:43:41.262Z,101442.44
2018-01-30T08:44:47.008Z,101446.63
2018-01-30T08:45:52.740Z,101449.15
2018-01-30T08:46:58.474Z,101450.35
2018-01-30T08:48:04.207Z,101445.38
2018-01-30T08:49:09.940Z,101456.74
2018-01-30T08:50:16.482Z,101457.57
2018-01-30T08:51:23.288Z,101454.02
2018-01-30T08:52:29.018Z,101443.89
2018-01-30T08:53:34.759Z,101447.63
2018-01-30T08:54:40.499Z,101451.73
2018-01-30T08:55:46.255Z,101446.30
2018-01-30T08:56:51.992Z,101449.64
2018-01-30T08:57:57.737Z,101440.91
2018-01-30T08:59:03.480Z,101443.05
2018-01-30T09:00:09.204Z,101452.94
2018-01-30T09:01:14.963Z,101453.16
2018-01-30T09:02:20.704Z,101446.33
2018-01-30T09:03:26.436Z,101447.85
2018-01-30T09:04:32.182Z,101453.08
2018-01-30T09:05:37.932Z,101450.94
2018-01-30T09:06:43.710Z,101440.13
2018-01-30T09:07:49.437Z,101442.23
2018-01-30T09:08:55.188Z,101443.97
2018-01-30T09:10:00.924Z,101441.22
2018-01-30T09:11:06.693Z,101433.23
2018-01-30T09:12:12.450Z,101429.56
2018-01-30T09:13:18.264Z,101429.65
2018-01-30T09:14:24.034Z,101435.67
2018-01-30T09:15:29.785Z,101439.41
2018-01-30T09:16:35.521Z,101427.17
2018-01-30T09:17:40.620Z,101429.91
2018-01-30T09:18:47.124Z,101434.00
2018-01-30T09:19:52.848Z,101430.72
2018-01-30T09:20:58.596Z,101428.59
2018-01-30T09:22:04.376Z,101433.94
2018-01-30T09:23:10.124Z,101419.05
2018-01-30T09:24:15.874Z,101435.73
2018-01-30T09:25:21.629Z,101436.96
2018-01-30T09:26:27.356Z,101431.44
2018-01-30T09:27:33.147Z,101426.17
2018-01-30T09:28:38.900Z,101429.52
2018-01-30T09:29:44.640Z,101429.36
2018-01-30T09:30:50.369Z,101438.30
2018-01-30T09:31:56.096Z,101433.34
2018-01-30T09:33:01.514Z,101441.62
2018-01-30T09:34:08.071Z,101441.67
2018-01-30T09:35:14.574Z,101438.56
2018-01-30T09:36:20.322Z,101443.61
2018-01-30T09:37:26.180Z,101452.78
2018-01-30T09:38:31.612Z,101448.36
2018-01-30T09:39:37.504Z,101451.39
2018-01-30T09:40:44.028Z,101447.86
2018-01-30T09:41:49.787Z,101461.60
2018-01-30T09:42:56.328Z,101454.73
2018-01-30T09:44:01.608Z,101467.94
2018-01-30T09:45:07.377Z,101470.34
2018-01-30T09:46:13.114Z,101459.28
2018-01-30T09:47:18.859Z,101467.23
2018-01-30T09:48:24.601Z,101465.21
2018-01-30T09:49:30.332Z,101464.93
2018-01-30T09:50:36.107Z,101464.56
2018-01-30T09:51:41.832Z,101467.05
2018-01-30T09:52:47.596Z,101461.05
2018-01-30T09:53:53.332Z,101455.78
2018-01-30T09:54:59.075Z,101458.17
2018-01-30T09:56:04.842Z,101462.06
2018-01-30T09:57:11.417Z,101461.18
2018-01-30T09:58:17.391Z,101456.52
2018-01-30T09:59:23.124Z,101464.33
2018-01-30T10:00:29.153Z,101460.77
2018-01-30T10:01:34.936Z,101463.20
2018-01-30T10:02:40.931Z,101454.42
2018-01-30T10:03:47.451Z,101454.23
2018-01-30T10:04:53.203Z,101460.95
2018-01-30T10:05:58.942Z,101464.67
2018-01-30T10:07:04.704Z,101461.38
2018-01-30T10:08:11.199Z,101462.09
2018-01-30T10:09:16.286Z,101459.66
2018-01-30T10:10:22.786Z,101452.99
2018-01-30T10:11:28.534Z,101452.58
2018-01-30T10:12:34.302Z,101458.95
2018-01-30T10:13:40.063Z,101463.38
2018-01-30T10:14:45.937Z,101460.69
2018-01-30T10:15:51.693Z,101453.41
2018-01-30T10:16:57.424Z,101457.56
2018-01-30T10:18:03.186Z,101452.83
2018-01-30T10:19:08.611Z,101452.05
2018-01-30T10:20:14.050Z,101455.78
2018-01-30T10:21:19.784Z,101459.03
2018-01-30T10:22:25.532Z,101456.64
2018-01-30T10:23:31.330Z,101448.92
2018-01-30T10:24:37.619Z,101453.60
2018-01-30T10:25:43.362Z,101457.27
2018-01-30T10:26:49.099Z,101448.98
2018-01-30T10:27:54.838Z,101452.15
2018-01-30T10:29:00.620Z,101443.20
2018-01-30T10:30:05.527Z,101456.89
2018-01-30T10:31:11.255Z,101444.81
2018-01-30T10:32:16.983Z,101448.20
2018-01-30T10:33:22.744Z,101446.03
2018-01-30T10:34:28.641Z,101443.93
2018-01-30T10:35:33.712Z,101452.50
2018-01-30T10:36:40.213Z,101444.13
2018-01-30T10:37:45.956Z,101447.14
2018-01-30T10:38:52.505Z,101439.48
2018-01-30T10:39:59.062Z,101439.18
2018-01-30T10:41:06.371Z,101439.55
2018-01-30T10:42:12.124Z,101438.88
2018-01-30T10:43:18.616Z,101434.47
2018-01-30T10:44:24.376Z,101438.72
2018-01-30T10:45:30.489Z,101440.82
2018-01-30T10:46:36.232Z,101435.38
2018-01-30T10:47:41.973Z,101445.88
2018-01-30T10:48:47.743Z,101430.16
2018-01-30T10:49:53.490Z,101437.50
2018-01-30T10:50:59.056Z,101425.17
2018-01-30T10:52:05.679Z,101429.60
2018-01-30T10:53:11.403Z,101433.88
2018-01-30T10:54:17.147Z,101432.28
2018-01-30T10:55:22.892Z,101427.75
2018-01-30T10:56:28.670Z,101424.05
2018-01-30T10:57:33.515Z,101422.05
2018-01-30T10:58:40.008Z,101416.72
2018-01-30T10:59:45.869Z,101422.30
2018-01-30T11:00:51.424Z,101419.92
2018-01-30T11:01:57.190Z,101415.07
2018-01-30T11:03:03.996Z,101424.26
2018-01-30T11:04:09.097Z,101419.73
2018-01-30T11:05:15.601Z,101427.38
2018-01-30T11:06:21.343Z,101432.04
2018-01-30T11:07:27.100Z,101421.53
2018-01-30T11:08:32.845Z,101420.04
2018-01-30T11:09:38.649Z,101421.91
2018-01-30T11:10:45.321Z,101422.34
2018-01-30T11:11:51.071Z,101420.09
2018-01-30T11:12:55.979Z,101417.59
2018-01-30T11:14:01.713Z,101410.94
2018-01-30T11:15:07.595Z,101408.75
2018-01-30T11:16:13.355Z,101415.88
2018-01-30T11:17:18.769Z,101404.13
2018-01-30T11:18:24.552Z,101409.64
2018-01-30T11:19:30.295Z,101404.05
2018-01-30T11:20:36.029Z,101401.48
2018-01-30T11:21:42.524Z,101404.81
2018-01-30T11:22:48.265Z,101400.16
2018-01-30T11:23:54.047Z,101405.44
2018-01-30T11:24:59.774Z,101397.98
2018-01-30T11:26:05.519Z,101402.39
2018-01-30T11:27:11.262Z,101396.01
2018-01-30T11:28:16.995Z,101405.81
2018-01-30T11:29:23.528Z,101411.08
2018-01-30T11:30:29.314Z,101413.37
2018-01-30T11:31:34.399Z,101409.05
2018-01-30T11:32:40.128Z,101417.20
2018-01-30T11:33:45.974Z,101416.42
2018-01-30T11:34:51.745Z,101410.21
2018-01-30T11:35:57.499Z,101416.34
2018-01-30T11:37:03.277Z,101418.03
2018-01-30T11:38:09.016Z,101420.56
2018-01-30T11:39:14.752Z,101413.83
2018-01-30T11:40:21.269Z,101412.67
2018-01-30T11:41:27.013Z,101422.86
2018-01-30T11:42:32.792Z,101415.72
2018-01-30T11:43:38.621Z,101411.44
2018-01-30T11:44:45.135Z,101421.63
2018-01-30T11:45:50.890Z,101409.50
2018-01-30T11:46:56.646Z,101413.16
2018-01-30T11:48:03.900Z,101414.90
2018-01-30T11:49:09.663Z,101407.27
2018-01-30T11:50:15.402Z,101412.35
2018-01-30T11:51:21.194Z,101416.58
2018-01-30T11:52:26.953Z,101417.97
2018-01-30T11:53:32.741Z,101418.48
2018-01-30T11:54:38.463Z,101414.39
2018-01-30T11:55:44.200Z,101412.69
2018-01-30T11:56:50.171Z,101422.88
2018-01-30T11:57:55.946Z,101413.11
2018-01-30T11:59:01.698Z,101415.28
2018-01-30T12:00:07.229Z,101415.78
2018-01-30T12:01:12.959Z,101424.11
2018-01-30T12:02:18.990Z,101426.78
2018-01-30T12:03:25.522Z,101427.14
2018-01-30T12:04:31.279Z,101428.92
2018-01-30T12:05:37.022Z,101429.66
2018-01-30T12:06:42.769Z,101428.72
2018-01-30T12:07:48.563Z,101428.75
2018-01-30T12:08:54.492Z,101433.53
2018-01-30T12:10:00.219Z,101427.14
2018-01-30T12:11:05.966Z,101432.65
2018-01-30T12:12:11.697Z,101432.58
2018-01-30T12:13:18.239Z,101430.20
2018-01-30T12:14:23.962Z,101428.00
2018-01-30T12:15:29.694Z,101429.05
2018-01-30T12:16:35.489Z,101428.41
2018-01-30T12:17:41.243Z,101430.39
2018-01-30T12:18:46.669Z,101426.11
2018-01-30T12:19:52.505Z,101422.76
2018-01-30T12:20:58.226Z,101429.27
2018-01-30T12:22:04.738Z,101428.24
2018-01-30T12:23:10.471Z,101411.70
2018-01-30T12:24:16.222Z,101419.40
2018-01-30T12:25:21.955Z,101413.88
2018-01-30T12:26:27.709Z,101408.27
2018-01-30T12:27:33.725Z,101415.80
2018-01-30T12:28:40.238Z,101406.72
2018-01-30T12:29:45.996Z,101409.20
2018-01-30T12:30:52.505Z,101401.30
2018-01-30T12:31:58.251Z,101405.72
2018-01-30T12:33:03.989Z,101406.03